createdAt,value
2023-04-06T00:02:01.735Z,51.00
2023-04-06T00:04:29.356Z,52.01
2023-04-06T00:06:57.394Z,51.90
2023-04-06T00:09:24.997Z,52.31
2023-04-06T00:11:52.575Z,52.16
2023-04-06T00:14:20.378Z,52.33
2023-04-06T00:16:48.120Z,52.70
2023-04-06T00:19:17.185Z,53.00
2023-04-06T00:21:44.784Z,53.32
2023-04-06T00:24:12.398Z,53.70
2023-04-06T00:26:40.055Z,53.22
2023-04-06T00:29:07.936Z,53.34
2023-04-06T00:31:35.873Z,53.72
2023-04-06T00:34:03.578Z,53.55
2023-04-06T00:36:32.554Z,53.64
2023-04-06T00:39:00.223Z,53.43
2023-04-06T00:41:27.946Z,53.75
2023-04-06T00:43:55.800Z,54.29
2023-04-06T00:46:23.481Z,54.82
2023-04-06T00:48:51.293Z,55.66
2023-04-06T00:51:18.867Z,55.92
2023-04-06T00:53:47.879Z,56.32
2023-04-06T00:56:15.553Z,56.72
2023-04-06T00:58:43.156Z,57.22
2023-04-06T01:01:10.816Z,57.67
2023-04-06T01:03:38.471Z,57.62
2023-04-06T01:06:06.314Z,58.32
2023-04-06T01:08:34.017Z,58.39
2023-04-06T01:11:03.044Z,58.68
2023-04-06T01:13:30.790Z,59.20
2023-04-06T01:15:58.732Z,59.03
2023-04-06T01:18:28.177Z,59.87
2023-04-06T01:20:55.987Z,60.45
2023-04-06T01:23:25.268Z,60.28
2023-04-06T01:25:52.828Z,59.99
2023-04-06T01:28:21.749Z,60.04
2023-04-06T01:30:49.441Z,59.93
2023-04-06T01:33:17.077Z,60.73
2023-04-06T01:35:44.729Z,61.85
2023-04-06T01:38:12.406Z,61.72
2023-04-06T01:40:41.510Z,61.08
2023-04-06T01:43:09.258Z,61.91
2023-04-06T01:45:36.966Z,61.98
2023-04-06T01:48:04.948Z,62.53
2023-04-06T01:50:32.722Z,64.41
2023-04-06T01:53:00.370Z,65.36
2023-04-06T01:55:28.034Z,65.40
2023-04-06T01:57:56.961Z,65.44
2023-04-06T02:00:24.589Z,65.31
2023-04-06T02:02:52.206Z,65.37
2023-04-06T02:05:19.844Z,65.95
2023-04-06T02:07:47.599Z,66.08
2023-04-06T02:10:16.602Z,66.12
2023-04-06T02:12:44.271Z,65.25
2023-04-06T02:15:14.230Z,65.01
2023-04-06T02:17:42.240Z,65.41
2023-04-06T02:20:10.938Z,66.50
2023-04-06T02:22:38.546Z,68.47
2023-04-06T02:25:07.138Z,69.31
2023-04-06T02:27:34.927Z,70.13
2023-04-06T02:30:02.839Z,69.58
2023-04-06T02:32:31.954Z,69.98
2023-04-06T02:34:59.751Z,70.44
2023-04-06T02:37:27.560Z,70.58
2023-04-06T02:39:55.421Z,70.84
2023-04-06T02:42:23.256Z,70.12
2023-04-06T02:44:51.064Z,70.20
2023-04-06T02:47:18.647Z,69.22
2023-04-06T02:49:48.557Z,68.94
2023-04-06T02:52:16.366Z,68.83
2023-04-06T02:54:44.034Z,69.13
2023-04-06T02:57:11.913Z,68.12
2023-04-06T02:59:39.626Z,68.17
2023-04-06T03:02:07.499Z,67.82
2023-04-06T03:04:35.232Z,67.76
2023-04-06T03:07:04.190Z,68.55
2023-04-06T03:09:31.830Z,68.56
2023-04-06T03:12:01.418Z,69.07
2023-04-06T03:14:30.132Z,69.26
2023-04-06T03:16:57.758Z,69.00
2023-04-06T03:19:25.386Z,68.87
2023-04-06T03:21:53.061Z,68.57
2023-04-06T03:24:22.027Z,69.39
2023-04-06T03:26:49.631Z,69.20
2023-04-06T03:29:17.270Z,68.29
2023-04-06T03:31:45.096Z,68.87
2023-04-06T03:34:12.830Z,68.24
2023-04-06T03:36:40.524Z,66.68
2023-04-06T03:39:08.425Z,66.33
2023-04-06T03:41:37.631Z,66.04
2023-04-06T03:44:05.445Z,65.65
2023-04-06T03:46:33.063Z,65.34
2023-04-06T03:49:00.819Z,65.33
2023-04-06T03:51:29.060Z,65.30
2023-04-06T03:53:56.849Z,65.74
2023-04-06T03:56:24.465Z,66.80
2023-04-06T03:58:53.494Z,66.37
2023-04-06T04:01:21.316Z,67.13
2023-04-06T04:03:51.082Z,66.46
2023-04-06T04:06:19.464Z,67.03
2023-04-06T04:08:47.209Z,67.25
2023-04-06T04:11:16.724Z,67.17
2023-04-06T04:13:44.411Z,67.98
2023-04-06T04:16:13.419Z,67.63
2023-04-06T04:18:41.096Z,67.33
2023-04-06T04:21:08.713Z,68.13
2023-04-06T04:23:37.461Z,68.97
2023-04-06T04:26:05.919Z,67.19
2023-04-06T04:28:33.590Z,66.96
2023-04-06T04:31:01.373Z,66.52
2023-04-06T04:33:34.805Z,65.72
2023-04-06T04:36:02.586Z,65.67
2023-04-06T04:38:30.269Z,65.94
2023-04-06T04:40:57.940Z,65.90
2023-04-06T04:43:25.603Z,66.74
2023-04-06T04:45:53.553Z,66.70
2023-04-06T04:48:21.332Z,65.77
2023-04-06T04:50:50.312Z,66.15
2023-04-06T04:53:17.953Z,65.45
2023-04-06T04:55:45.617Z,67.09
2023-04-06T04:58:16.394Z,66.61
2023-04-06T05:00:44.142Z,66.85
2023-04-06T05:03:21.831Z,66.89
2023-04-06T05:05:50.885Z,67.98
2023-04-06T05:08:18.617Z,68.41
2023-04-06T05:10:47.621Z,68.28
2023-04-06T05:13:15.488Z,68.40
2023-04-06T05:15:43.258Z,68.45
2023-04-06T05:18:10.958Z,68.77
2023-04-06T05:20:39.663Z,69.04
2023-04-06T05:23:08.749Z,69.15
2023-04-06T05:25:36.595Z,69.77
2023-04-06T05:28:04.251Z,70.66
2023-04-06T05:30:32.086Z,70.41
2023-04-06T05:33:01.130Z,70.43
2023-04-06T05:35:28.819Z,71.24
2023-04-06T05:37:56.565Z,70.45
2023-04-06T05:40:25.557Z,70.33
2023-04-06T05:42:53.247Z,70.16
2023-04-06T05:45:22.223Z,69.98
2023-04-06T05:47:50.013Z,69.56
2023-04-06T05:50:17.906Z,69.05
2023-04-06T05:52:47.321Z,68.15
2023-04-06T05:55:15.059Z,68.58
2023-04-06T05:57:46.506Z,68.14
2023-04-06T06:00:15.885Z,69.45
2023-04-06T06:02:43.885Z,69.25
2023-04-06T06:05:11.919Z,67.62
2023-04-06T06:07:39.603Z,66.06
2023-04-06T06:10:08.485Z,65.32
2023-04-06T06:12:38.533Z,66.01
2023-04-06T06:15:08.662Z,64.75
2023-04-06T06:17:39.010Z,64.83
2023-04-06T06:20:08.457Z,64.82
2023-04-06T06:22:36.116Z,64.68
2023-04-06T06:25:04.150Z,63.55
2023-04-06T06:27:31.838Z,63.41
2023-04-06T06:29:59.510Z,63.46
2023-04-06T06:32:28.516Z,62.54
2023-04-06T06:34:56.132Z,63.03
2023-04-06T06:37:23.788Z,62.72
2023-04-06T06:39:51.678Z,60.85
2023-04-06T06:42:20.402Z,60.76
2023-04-06T06:44:48.330Z,61.62
2023-04-06T06:47:16.022Z,58.29
2023-04-06T06:49:45.116Z,58.72
2023-04-06T06:52:12.887Z,57.70
2023-04-06T06:54:40.695Z,58.14
2023-04-06T06:57:09.301Z,56.64
2023-04-06T06:59:37.411Z,56.87
2023-04-06T07:02:05.329Z,56.46
2023-04-06T07:04:33.130Z,54.79
2023-04-06T07:07:02.529Z,53.66
2023-04-06T07:09:30.181Z,53.85
2023-04-06T07:11:58.296Z,52.81
2023-04-06T07:14:26.006Z,52.71
2023-04-06T07:16:53.892Z,52.67
2023-04-06T07:19:21.638Z,52.77
2023-04-06T07:21:50.218Z,51.50
2023-04-06T07:24:19.303Z,51.37
2023-04-06T07:26:47.370Z,50.55
2023-04-06T07:29:14.935Z,50.19
2023-04-06T07:31:43.735Z,50.04
2023-04-06T07:34:11.526Z,49.91
2023-04-06T07:36:39.114Z,49.74
2023-04-06T07:39:06.944Z,50.01
2023-04-06T07:41:35.977Z,50.15
2023-04-06T07:44:03.903Z,49.40
2023-04-06T07:46:32.211Z,48.88
2023-04-06T07:49:01.924Z,48.40
2023-04-06T07:51:29.656Z,48.07
2023-04-06T07:53:57.920Z,48.52
2023-04-06T07:56:26.213Z,47.58
2023-04-06T07:58:57.329Z,47.87
2023-04-06T08:01:25.051Z,48.31
2023-04-06T08:03:52.861Z,48.33
2023-04-06T08:06:20.754Z,47.73
2023-04-06T08:08:48.475Z,48.22
2023-04-06T08:11:16.609Z,47.54
2023-04-06T08:13:44.450Z,48.47
2023-04-06T08:16:13.491Z,46.75
2023-04-06T08:18:41.408Z,46.65
2023-04-06T08:21:10.116Z,47.19
2023-04-06T08:23:37.714Z,46.32
2023-04-06T08:26:05.798Z,46.47
2023-04-06T08:28:35.506Z,46.71
2023-04-06T08:31:06.037Z,46.47
2023-04-06T08:33:36.908Z,46.81
2023-04-06T08:36:12.653Z,47.01
2023-04-06T08:38:41.563Z,47.13
2023-04-06T08:41:10.899Z,46.95
2023-04-06T08:43:45.665Z,46.92
2023-04-06T08:46:13.603Z,46.73
2023-04-06T08:48:43.846Z,46.68
2023-04-06T08:51:12.170Z,47.38
2023-04-06T08:53:40.626Z,47.19
2023-04-06T08:56:11.329Z,46.67
2023-04-06T08:58:41.287Z,46.15
2023-04-06T09:01:10.803Z,46.19
2023-04-06T09:03:41.047Z,44.58
2023-04-06T09:06:11.252Z,44.74
2023-04-06T09:08:43.141Z,44.21
2023-04-06T09:11:11.850Z,44.70
2023-04-06T09:13:50.542Z,44.86
2023-04-06T09:16:19.009Z,44.78
2023-04-06T09:18:47.179Z,44.77
2023-04-06T09:21:19.261Z,44.32
2023-04-06T09:23:50.509Z,43.93
2023-04-06T09:26:19.424Z,44.25
2023-04-06T09:28:48.913Z,43.31
2023-04-06T09:31:17.729Z,42.37
2023-04-06T09:33:47.586Z,42.15
2023-04-06T09:36:17.440Z,41.91
2023-04-06T09:38:56.211Z,41.83
2023-04-06T09:41:25.539Z,41.48
2023-04-06T09:43:53.863Z,42.00
2023-04-06T09:46:23.806Z,41.79
2023-04-06T09:48:52.100Z,41.36
2023-04-06T09:51:22.314Z,40.75
2023-04-06T09:53:55.532Z,41.72
2023-04-06T09:56:26.779Z,40.89
2023-04-06T09:59:03.581Z,40.67
2023-04-06T10:01:35.829Z,40.79
2023-04-06T10:04:22.007Z,40.59
2023-04-06T10:06:53.477Z,39.87
2023-04-06T10:09:27.019Z,39.91
2023-04-06T10:11:54.778Z,39.92
2023-04-06T10:14:22.500Z,40.53
2023-04-06T10:16:50.663Z,39.97
2023-04-06T10:19:24.184Z,40.04
2023-04-06T10:21:57.812Z,39.44
2023-04-06T10:24:25.612Z,39.45
2023-04-06T10:27:01.228Z,39.43
2023-04-06T10:29:29.291Z,38.94
2023-04-06T10:31:56.999Z,38.98
2023-04-06T10:34:32.128Z,40.04
2023-04-06T10:37:13.027Z,39.38
2023-04-06T10:39:49.989Z,39.02
2023-04-06T10:42:17.616Z,37.87
2023-04-06T10:44:46.485Z,37.93
2023-04-06T10:47:21.349Z,37.34
2023-04-06T10:49:49.047Z,37.12
2023-04-06T10:52:18.357Z,36.85
2023-04-06T10:54:50.465Z,36.75
2023-04-06T10:57:18.226Z,37.13
2023-04-06T10:59:46.137Z,36.96
2023-04-06T11:02:22.692Z,36.07
2023-04-06T11:04:58.067Z,36.85
2023-04-06T11:07:27.880Z,36.80
2023-04-06T11:10:12.686Z,36.81
2023-04-06T11:12:43.543Z,36.64
2023-04-06T11:15:12.025Z,37.58
2023-04-06T11:17:40.934Z,36.92
2023-04-06T11:20:12.820Z,36.42
2023-04-06T11:22:51.695Z,36.43
2023-04-06T11:25:19.837Z,34.74
2023-04-06T11:27:48.977Z,35.14
2023-04-06T11:30:16.882Z,34.43
2023-04-06T11:32:46.148Z,34.42
2023-04-06T11:35:23.631Z,34.98
2023-04-06T11:37:53.253Z,34.72
2023-04-06T11:40:23.500Z,34.89
2023-04-06T11:42:54.862Z,34.87
2023-04-06T11:45:23.028Z,34.64
2023-04-06T11:47:58.473Z,34.35
2023-04-06T11:50:26.285Z,34.72
2023-04-06T11:53:02.463Z,34.70
2023-04-06T11:55:32.295Z,34.74
2023-04-06T11:58:01.230Z,34.86
2023-04-06T12:00:32.882Z,34.05
2023-04-06T12:03:00.593Z,34.43
2023-04-06T12:05:28.580Z,34.49
2023-04-06T12:07:57.475Z,34.33
2023-04-06T12:10:27.974Z,34.24
2023-04-06T12:12:55.669Z,34.00
2023-04-06T12:15:23.430Z,33.79
2023-04-06T12:17:51.574Z,34.12
2023-04-06T12:20:26.473Z,33.49
2023-04-06T12:22:54.587Z,33.59
2023-04-06T12:25:23.750Z,33.21
2023-04-06T12:27:52.971Z,32.91
2023-04-06T12:30:20.824Z,33.18
2023-04-06T12:32:51.107Z,33.33
2023-04-06T12:35:21.626Z,33.00
2023-04-06T12:37:49.335Z,33.50
2023-04-06T12:40:17.233Z,33.09
2023-04-06T12:42:46.596Z,32.97
2023-04-06T12:45:18.130Z,33.02
2023-04-06T12:47:45.760Z,32.64
2023-04-06T12:50:13.648Z,33.44
2023-04-06T12:52:41.267Z,32.56
2023-04-06T12:55:10.169Z,32.87
2023-04-06T12:57:38.049Z,32.93
2023-04-06T13:00:09.169Z,32.27
2023-04-06T13:02:38.657Z,32.20
2023-04-06T13:05:09.020Z,31.76
2023-04-06T13:07:36.676Z,32.39
2023-04-06T13:10:04.914Z,31.80
2023-04-06T13:12:32.573Z,32.15
2023-04-06T13:15:01.045Z,31.66
2023-04-06T13:17:29.376Z,31.31
2023-04-06T13:19:58.599Z,31.28
2023-04-06T13:22:26.614Z,31.97
2023-04-06T13:24:54.261Z,31.26
2023-04-06T13:27:21.949Z,31.44
2023-04-06T13:29:49.589Z,30.98
2023-04-06T13:32:17.303Z,30.83
2023-04-06T13:34:45.870Z,30.76
2023-04-06T13:37:15.738Z,30.35
2023-04-06T13:39:43.768Z,30.50
2023-04-06T13:42:11.979Z,31.20
2023-04-06T13:44:39.782Z,30.07
2023-04-06T13:47:08.140Z,30.05
2023-04-06T13:49:36.883Z,30.71
2023-04-06T13:52:04.806Z,30.07
2023-04-06T13:54:33.865Z,29.67
2023-04-06T13:57:01.765Z,30.20
2023-04-06T13:59:34.540Z,30.44
2023-04-06T14:02:02.383Z,29.45
2023-04-06T14:04:31.020Z,29.07
2023-04-06T14:06:59.039Z,28.87
2023-04-06T14:09:26.833Z,29.42
2023-04-06T14:11:56.254Z,29.34
2023-04-06T14:14:24.370Z,28.85
2023-04-06T14:16:52.044Z,29.84
2023-04-06T14:19:20.528Z,29.27
2023-04-06T14:21:48.276Z,29.52
2023-04-06T14:24:18.848Z,30.25
2023-04-06T14:26:46.589Z,29.68
2023-04-06T14:29:16.683Z,29.95
2023-04-06T14:31:44.360Z,30.12
2023-04-06T14:34:12.116Z,30.72
2023-04-06T14:36:40.059Z,30.70
2023-04-06T14:39:08.966Z,30.76
2023-04-06T14:41:36.774Z,30.99
2023-04-06T14:44:06.589Z,30.56
2023-04-06T14:46:35.773Z,30.94
2023-04-06T14:49:04.288Z,31.58
2023-04-06T14:51:32.238Z,32.02
2023-04-06T14:54:01.907Z,31.62
2023-04-06T14:56:30.062Z,31.55
2023-04-06T14:59:00.512Z,31.89
2023-04-06T15:01:29.287Z,31.69
2023-04-06T15:03:58.306Z,31.92
2023-04-06T15:06:26.584Z,31.78
2023-04-06T15:08:55.534Z,31.99
2023-04-06T15:11:23.612Z,32.18
2023-04-06T15:13:51.584Z,32.21
2023-04-06T15:16:19.225Z,32.25
2023-04-06T15:18:46.894Z,32.12
2023-04-06T15:21:16.141Z,32.76
2023-04-06T15:23:43.803Z,32.45
2023-04-06T15:26:11.900Z,32.46
2023-04-06T15:28:39.550Z,32.47
2023-04-06T15:31:20.640Z,31.96
2023-04-06T15:33:56.479Z,32.41
2023-04-06T15:36:29.439Z,32.48
2023-04-06T15:38:57.842Z,32.92
2023-04-06T15:41:26.756Z,32.53
2023-04-06T15:43:55.294Z,32.98
2023-04-06T15:46:23.246Z,32.76
2023-04-06T15:48:50.953Z,32.98
2023-04-06T15:51:18.679Z,33.14
2023-04-06T15:53:47.677Z,33.14
2023-04-06T15:56:15.856Z,33.64
2023-04-06T15:58:43.543Z,33.55
2023-04-06T16:01:15.495Z,33.70
2023-04-06T16:03:43.552Z,33.19
2023-04-06T16:06:12.253Z,33.43
2023-04-06T16:08:40.872Z,33.37
2023-04-06T16:11:10.420Z,32.74
2023-04-06T16:13:38.377Z,33.13
2023-04-06T16:16:07.120Z,32.86
2023-04-06T16:18:36.454Z,33.03
2023-04-06T16:21:05.401Z,33.42
2023-04-06T16:23:33.189Z,33.40
2023-04-06T16:26:02.300Z,34.12
2023-04-06T16:28:31.458Z,32.66
2023-04-06T16:30:59.149Z,32.85
2023-04-06T16:33:26.770Z,33.19
2023-04-06T16:35:55.355Z,33.62
2023-04-06T16:38:23.999Z,34.00
2023-04-06T16:41:00.747Z,33.71
2023-04-06T16:43:28.514Z,33.91
2023-04-06T16:45:57.662Z,33.94
2023-04-06T16:48:25.742Z,34.20
2023-04-06T16:50:53.376Z,34.64
2023-04-06T16:53:21.075Z,34.59
2023-04-06T16:55:48.756Z,35.09
2023-04-06T16:58:16.459Z,34.92
2023-04-06T17:00:45.185Z,34.73
2023-04-06T17:03:14.476Z,34.97
2023-04-06T17:05:42.295Z,34.59
2023-04-06T17:08:10.028Z,35.13
2023-04-06T17:10:46.913Z,35.21
2023-04-06T17:13:25.416Z,35.55
2023-04-06T17:15:54.309Z,35.68
2023-04-06T17:18:23.292Z,35.58
2023-04-06T17:20:51.037Z,35.84
2023-04-06T17:23:21.008Z,36.14
2023-04-06T17:25:48.646Z,36.31
2023-04-06T17:28:16.350Z,36.43
2023-04-06T17:30:44.212Z,36.22
2023-04-06T17:33:12.475Z,36.40
2023-04-06T17:35:42.371Z,36.90
2023-04-06T17:38:10.246Z,36.91
2023-04-06T17:40:38.510Z,37.11
2023-04-06T17:43:06.843Z,37.04
2023-04-06T17:45:34.579Z,37.27
2023-04-06T17:48:02.327Z,37.58
2023-04-06T17:50:30.539Z,37.68
2023-04-06T17:52:59.509Z,37.32
2023-04-06T17:55:27.573Z,37.60
2023-04-06T17:57:55.490Z,37.96
2023-04-06T18:00:24.572Z,37.91
2023-04-06T18:02:53.031Z,37.86
2023-04-06T18:05:21.728Z,38.01
2023-04-06T18:07:49.437Z,38.51
2023-04-06T18:10:18.831Z,38.25
2023-04-06T18:12:46.552Z,38.50
2023-04-06T18:15:15.299Z,38.49
2023-04-06T18:17:43.255Z,38.84
2023-04-06T18:20:13.305Z,38.40
2023-04-06T18:22:42.687Z,38.84
2023-04-06T18:25:10.727Z,38.92
2023-04-06T18:27:39.758Z,38.59
2023-04-06T18:30:08.482Z,39.12
2023-04-06T18:32:36.330Z,39.07
2023-04-06T18:35:05.496Z,38.79
2023-04-06T18:37:33.232Z,39.20
2023-04-06T18:40:01.076Z,38.96
2023-04-06T18:42:28.827Z,39.26
2023-04-06T18:44:58.934Z,39.12
2023-04-06T18:47:26.852Z,39.41
2023-04-06T18:49:54.750Z,39.62
2023-04-06T18:52:22.693Z,39.78
2023-04-06T18:54:51.038Z,39.88
2023-04-06T18:57:18.667Z,39.79
2023-04-06T18:59:46.425Z,40.18
2023-04-06T19:02:15.466Z,40.17
2023-04-06T19:04:43.289Z,40.43
2023-04-06T19:07:11.113Z,40.42
2023-04-06T19:09:38.747Z,40.93
2023-04-06T19:12:07.393Z,41.38
2023-04-06T19:14:35.077Z,41.26
2023-04-06T19:17:02.823Z,41.37
2023-04-06T19:19:31.783Z,41.52
2023-04-06T19:22:01.951Z,41.35
2023-04-06T19:24:29.889Z,41.66
2023-04-06T19:27:03.363Z,41.75
2023-04-06T19:29:31.658Z,41.95
2023-04-06T19:31:59.723Z,42.55
2023-04-06T19:34:28.614Z,42.73
2023-04-06T19:36:57.693Z,43.06
2023-04-06T19:39:26.435Z,43.17
2023-04-06T19:41:54.029Z,43.02
2023-04-06T19:44:21.743Z,42.95
2023-04-06T19:46:50.495Z,42.98
2023-04-06T19:49:18.315Z,43.42
2023-04-06T19:51:46.122Z,43.41
2023-04-06T19:54:15.262Z,43.44
2023-04-06T19:56:42.916Z,43.84
2023-04-06T19:59:11.259Z,43.92
2023-04-06T20:01:39.049Z,43.91
2023-04-06T20:04:07.818Z,44.34
2023-04-06T20:06:35.630Z,44.38
2023-04-06T20:09:03.327Z,44.59
2023-04-06T20:11:34.282Z,44.65
2023-04-06T20:14:02.376Z,44.62
2023-04-06T20:16:30.259Z,44.77
2023-04-06T20:18:57.952Z,45.17
2023-04-06T20:21:25.807Z,45.37
2023-04-06T20:23:53.717Z,45.90
2023-04-06T20:26:21.409Z,46.04
2023-04-06T20:28:50.420Z,46.45
2023-04-06T20:31:18.081Z,46.42
2023-04-06T20:33:45.752Z,46.74
2023-04-06T20:36:13.387Z,46.72
2023-04-06T20:38:41.443Z,46.70
2023-04-06T20:41:10.223Z,47.11
2023-04-06T20:43:38.391Z,47.38
2023-04-06T20:46:09.215Z,47.27
2023-04-06T20:48:38.004Z,47.01
2023-04-06T20:51:06.469Z,47.61
2023-04-06T20:53:34.450Z,47.52
2023-04-06T20:56:09.349Z,47.61
2023-04-06T20:58:41.392Z,47.93
2023-04-06T21:01:14.978Z,48.25
2023-04-06T21:03:43.413Z,48.29
2023-04-06T21:06:11.521Z,48.19
2023-04-06T21:08:39.763Z,48.78
2023-04-06T21:11:07.674Z,48.38
2023-04-06T21:13:36.305Z,48.72
2023-04-06T21:16:04.630Z,48.67
2023-04-06T21:18:33.703Z,49.00
2023-04-06T21:21:01.741Z,49.05
2023-04-06T21:23:29.559Z,49.37
2023-04-06T21:25:57.798Z,49.60
2023-04-06T21:28:27.116Z,49.58
2023-04-06T21:30:55.373Z,49.14
2023-04-06T21:33:23.596Z,49.66
2023-04-06T21:35:53.516Z,49.54
2023-04-06T21:38:21.518Z,49.81
2023-04-06T21:40:55.345Z,49.75
2023-04-06T21:43:22.985Z,49.43
2023-04-06T21:45:51.180Z,49.90
2023-04-06T21:48:19.352Z,49.56
2023-04-06T21:50:47.125Z,49.90
2023-04-06T21:53:16.178Z,50.17
2023-04-06T21:55:44.805Z,50.59
2023-04-06T21:58:13.298Z,50.39
2023-04-06T22:00:41.685Z,50.38
2023-04-06T22:03:09.689Z,50.60
2023-04-06T22:05:51.346Z,50.86
2023-04-06T22:08:33.355Z,50.75
2023-04-06T22:11:04.433Z,50.97
2023-04-06T22:13:32.314Z,50.89
2023-04-06T22:16:00.034Z,50.91
2023-04-06T22:18:27.898Z,50.99
2023-04-06T22:20:56.024Z,51.30
2023-04-06T22:23:25.469Z,51.58
2023-04-06T22:25:57.925Z,51.72
2023-04-06T22:28:25.792Z,52.05
2023-04-06T22:30:53.404Z,52.22
2023-04-06T22:33:21.499Z,52.07
2023-04-06T22:35:49.196Z,52.51
2023-04-06T22:38:17.003Z,52.84
2023-04-06T22:40:45.942Z,52.55
2023-04-06T22:43:13.646Z,52.37
2023-04-06T22:45:41.310Z,53.17
2023-04-06T22:48:11.228Z,53.19
2023-04-06T22:50:39.360Z,53.40
2023-04-06T22:53:07.314Z,53.36
2023-04-06T22:55:35.324Z,53.65
2023-04-06T22:58:04.344Z,53.98
2023-04-06T23:00:32.125Z,53.51
2023-04-06T23:03:00.260Z,54.08
2023-04-06T23:05:30.270Z,53.54
2023-04-06T23:07:58.065Z,54.29
2023-04-06T23:10:25.664Z,54.09
2023-04-06T23:12:53.822Z,54.25
2023-04-06T23:15:23.000Z,53.94
2023-04-06T23:17:54.068Z,54.21
2023-04-06T23:20:22.311Z,54.52
2023-04-06T23:22:52.305Z,54.04
2023-04-06T23:25:20.178Z,54.15
2023-04-06T23:27:48.023Z,54.87
2023-04-06T23:30:16.281Z,54.78
2023-04-06T23:32:45.961Z,54.76
2023-04-06T23:35:13.820Z,55.66
2023-04-06T23:37:41.621Z,55.85
2023-04-06T23:40:10.393Z,56.47
2023-04-06T23:42:38.109Z,56.76
2023-04-06T23:45:06.826Z,57.12
2023-04-06T23:47:34.587Z,56.51
2023-04-06T23:50:06.321Z,56.69
2023-04-06T23:52:34.304Z,57.01
2023-04-06T23:55:01.925Z,55.99
2023-04-06T23:57:29.650Z,55.93
2023-04-06T23:59:59.941Z,56.21
